createdAt,value
2023-03-20T01:47:19.261Z,0
2023-03-20T01:52:41.612Z,0
2023-03-20T01:59:22.980Z,0
2023-03-20T02:04:46.115Z,0
2023-03-20T02:10:08.716Z,0
2023-03-20T02:15:37.198Z,0
2023-03-20T02:21:05.378Z,0
2023-03-20T02:26:28.164Z,0
2023-03-20T02:31:50.523Z,0
2023-03-20T02:37:54.915Z,0
2023-03-20T02:43:17.360Z,0
2023-03-20T02:48:39.884Z,0
2023-03-20T02:54:13.006Z,0
2023-03-20T02:59:35.590Z,0
2023-03-20T03:04:58.005Z,0
2023-03-20T03:10:20.395Z,0
2023-03-20T03:15:42.770Z,0
2023-03-20T03:21:05.368Z,0
2023-03-20T03:26:29.943Z,0
2023-03-20T03:31:54.824Z,0
2023-03-20T03:37:17.187Z,0
2023-03-20T03:42:42.483Z,0
2023-03-20T03:48:05.031Z,0
2023-03-20T03:53:27.406Z,0
2023-03-20T03:58:49.832Z,0
2023-03-20T04:04:12.706Z,0
2023-03-20T04:10:13.223Z,0
2023-03-20T04:15:35.842Z,0
2023-03-20T04:20:59.363Z,0
2023-03-20T04:26:24.723Z,0
2023-03-20T04:31:46.898Z,0
2023-03-20T04:37:12.417Z,0
2023-03-20T04:42:37.801Z,0
2023-03-20T04:48:00.154Z,0
2023-03-20T04:53:23.979Z,0
2023-03-20T04:58:49.761Z,0
2023-03-20T05:04:33.307Z,0
2023-03-20T05:09:58.648Z,0
2023-03-20T05:15:20.920Z,0
2023-03-20T05:20:49.578Z,0
2023-03-20T05:26:11.986Z,0
2023-03-20T05:31:34.354Z,0
2023-03-20T05:36:56.629Z,0
2023-03-20T05:42:19.215Z,0
2023-03-20T05:47:51.357Z,0
2023-03-20T05:53:14.016Z,0.1
2023-03-20T05:58:36.596Z,0.1
2023-03-20T06:04:02.578Z,0.1
2023-03-20T06:09:25.543Z,0.1
2023-03-20T06:14:48.294Z,0.1
2023-03-20T06:20:11.003Z,0.2
2023-03-20T06:25:33.571Z,0.2
2023-03-20T06:30:57.223Z,0.3
2023-03-20T06:36:20.332Z,0.3
2023-03-20T06:41:43.170Z,0.3
2023-03-20T06:47:05.523Z,0.3
2023-03-20T06:52:28.112Z,0.3
2023-03-20T06:57:50.859Z,0.2
2023-03-20T07:03:20.927Z,0.2
2023-03-20T07:08:47.788Z,0.3
2023-03-20T07:14:13.974Z,0.3
2023-03-20T07:19:38.086Z,0.4
2023-03-20T07:25:01.057Z,0.4
2023-03-20T07:30:23.754Z,0.4
2023-03-20T07:35:46.318Z,0.5
2023-03-20T07:41:08.942Z,0.5
2023-03-20T07:46:31.442Z,0.5
2023-03-20T07:51:54.128Z,0.6
2023-03-20T07:57:22.412Z,0.5
2023-03-20T08:02:45.265Z,0.6
2023-03-20T08:08:08.593Z,0.7
2023-03-20T08:13:31.800Z,0.9
2023-03-20T08:19:00.728Z,0.9
2023-03-20T08:24:24.328Z,1.1
2023-03-20T08:29:46.882Z,1
2023-03-20T08:35:32.049Z,1
2023-03-20T08:41:10.026Z,0.9
2023-03-20T08:46:32.741Z,0.9
2023-03-20T08:51:55.670Z,0.9
2023-03-20T08:57:23.403Z,0.8
2023-03-20T09:02:45.733Z,0.6
2023-03-20T09:08:08.312Z,0.7
2023-03-20T09:13:31.743Z,0.8
2023-03-20T09:18:56.976Z,1
2023-03-20T09:24:48.936Z,1.2
2023-03-20T09:30:11.705Z,1.3
2023-03-20T09:35:44.253Z,1.2
2023-03-20T09:41:07.388Z,1.2
2023-03-20T09:46:29.993Z,0.9
2023-03-20T09:51:52.936Z,1
2023-03-20T09:57:20.590Z,0.9
2023-03-20T10:02:46.152Z,1
2023-03-20T10:08:11.382Z,0.9
2023-03-20T10:13:38.802Z,0.8
2023-03-20T10:19:01.511Z,0.8
2023-03-20T10:24:24.113Z,0.8
2023-03-20T10:29:49.593Z,0.7
2023-03-20T10:35:26.769Z,0.6
2023-03-20T10:40:49.375Z,0.6
2023-03-20T10:46:11.640Z,0.7
2023-03-20T10:51:37.241Z,0.6
2023-03-20T10:56:59.893Z,0.5
2023-03-20T11:02:23.189Z,0.6
2023-03-20T11:07:46.054Z,0.7
2023-03-20T11:13:08.425Z,0.8
2023-03-20T11:18:30.930Z,0.8
2023-03-20T11:23:53.440Z,1.1
2023-03-20T11:29:19.093Z,1
2023-03-20T11:34:41.696Z,1
2023-03-20T11:40:04.396Z,1.1
2023-03-20T11:45:29.222Z,1.2
2023-03-20T11:50:51.466Z,1
2023-03-20T11:56:16.821Z,0.9
2023-03-20T12:01:39.687Z,1.2
2023-03-20T12:07:05.237Z,1.3
2023-03-20T12:12:28.602Z,1.5
2023-03-20T12:17:51.644Z,1.7
2023-03-20T12:23:14.597Z,1.5
2023-03-20T12:28:37.070Z,1.6
2023-03-20T12:33:59.966Z,1.5
2023-03-20T12:39:22.232Z,1.3
2023-03-20T12:44:44.453Z,1.3
2023-03-20T12:50:07.194Z,1.1
2023-03-20T12:55:32.360Z,1.2
2023-03-20T13:00:57.483Z,1.4
2023-03-20T13:06:22.988Z,1.5
2023-03-20T13:11:45.759Z,1.2
2023-03-20T13:17:24.102Z,0.9
2023-03-20T13:22:46.298Z,0.9
2023-03-20T13:28:08.545Z,0.9
2023-03-20T13:33:30.956Z,0.9
2023-03-20T13:38:53.675Z,0.9
2023-03-20T13:44:16.159Z,1
2023-03-20T13:49:40.235Z,1.1
2023-03-20T13:55:02.840Z,1
2023-03-20T14:00:28.661Z,0.9
2023-03-20T14:05:51.360Z,0.8
2023-03-20T14:11:13.955Z,0.8
2023-03-20T14:16:36.900Z,1
2023-03-20T14:21:59.856Z,0.9
2023-03-20T14:27:43.123Z,0.8
2023-03-20T14:33:08.183Z,1.4
2023-03-20T14:38:31.648Z,1.1
2023-03-20T14:43:53.785Z,0.9
2023-03-20T14:49:18.767Z,1.1
2023-03-20T14:54:41.318Z,1.1
2023-03-20T15:00:07.264Z,1
2023-03-20T15:05:30.281Z,0.7
2023-03-20T15:10:52.706Z,0.6
2023-03-20T15:16:15.066Z,0.4
2023-03-20T15:21:37.815Z,0.4
2023-03-20T15:27:00.025Z,0.5
2023-03-20T15:32:22.923Z,0.5
2023-03-20T15:37:45.550Z,0.3
2023-03-20T15:43:11.911Z,0.2
2023-03-20T15:48:34.508Z,0.3
2023-03-20T15:53:57.263Z,0.4
2023-03-20T15:59:19.953Z,0.4
2023-03-20T16:04:42.421Z,0.4
2023-03-20T16:10:04.763Z,0.3
2023-03-20T16:15:37.625Z,0.2
2023-03-20T16:21:00.205Z,0.2
2023-03-20T16:26:22.688Z,0.3
2023-03-20T16:31:45.324Z,0.2
2023-03-20T16:37:08.414Z,0.2
2023-03-20T16:42:30.952Z,0.1
2023-03-20T16:47:55.975Z,0.1
2023-03-20T16:53:18.391Z,0.1
2023-03-20T16:58:41.168Z,0.1
2023-03-20T17:04:03.974Z,0.1
2023-03-20T17:09:26.866Z,0.1
2023-03-20T17:14:49.725Z,0.1
2023-03-20T17:20:12.496Z,0.1
2023-03-20T17:25:38.091Z,0.1
2023-03-20T17:31:04.061Z,0.1
2023-03-20T17:36:26.861Z,0.1
2023-03-20T17:41:49.430Z,0.1
2023-03-20T17:47:11.924Z,0
2023-03-20T17:52:35.142Z,0
2023-03-20T17:57:57.603Z,0
2023-03-20T18:03:20.059Z,0
2023-03-20T18:08:43.074Z,0
2023-03-20T18:14:08.952Z,0
2023-03-20T18:19:35.005Z,0
2023-03-20T18:24:59.893Z,0
2023-03-20T18:30:22.674Z,0
2023-03-20T18:35:45.384Z,0
2023-03-20T18:41:08.218Z,0
2023-03-20T18:46:37.047Z,0
2023-03-20T18:57:12.171Z,0
2023-03-20T19:02:34.700Z,0
2023-03-20T19:13:08.439Z,0
2023-03-20T19:18:40.110Z,0
2023-03-20T19:24:02.813Z,0
2023-03-20T19:29:25.451Z,0
2023-03-20T19:41:29.243Z,0
2023-03-20T19:46:51.822Z,0
2023-03-20T19:52:14.589Z,0
2023-03-20T19:57:37.365Z,0
2023-03-20T20:02:59.973Z,0
2023-03-20T20:08:33.302Z,0
2023-03-20T20:14:14.713Z,0
2023-03-20T20:19:38.157Z,0
2023-03-20T20:25:00.930Z,0
2023-03-20T20:30:23.667Z,0
2023-03-20T20:36:11.353Z,0
2023-03-20T20:43:11.506Z,0
2023-03-20T20:48:34.027Z,0
2023-03-20T20:53:56.436Z,0
2023-03-20T20:59:19.169Z,0
2023-03-20T21:04:42.081Z,0
2023-03-20T21:10:04.757Z,0
2023-03-20T21:15:27.362Z,0
2023-03-20T21:20:50.503Z,0
2023-03-20T21:26:12.981Z,0
2023-03-20T21:31:35.654Z,0
2023-03-20T21:37:00.016Z,0
2023-03-20T21:44:17.377Z,0
2023-03-20T21:51:10.543Z,0
2023-03-20T22:06:24.005Z,0
2023-03-20T22:28:00.714Z,0
2023-03-20T22:35:04.815Z,0
2023-03-20T22:42:32.765Z,0
2023-03-20T22:49:22.795Z,0
2023-03-20T22:54:45.318Z,0
2023-03-20T23:00:33.933Z,0
2023-03-20T23:05:57.449Z,0
2023-03-20T23:11:20.032Z,0
2023-03-20T23:16:42.868Z,0
2023-03-20T23:22:05.787Z,0
2023-03-20T23:27:28.037Z,0
2023-03-20T23:32:54.065Z,0
2023-03-20T23:38:17.174Z,0
2023-03-20T23:43:40.313Z,0
2023-03-20T23:49:02.889Z,0
2023-03-20T23:54:27.854Z,0
2023-03-20T23:59:53.932Z,0
